Terminal Aerodrome Forecast
Issued by NWS Twin Cities, MN

Home | Current Version | Previous Version | Text Only | Print | Product List | Glossary On
Versions: 1 2 3 4 5 6 7 8 9 10 11 12 13
000
FTUS43 KMPX 282300 RRA
TAFEAU
TAF
KEAU 282341Z 2900/2924 13006KT P6SM -SHRA FEW012 BKN022 OVC040
      TEMPO 2900/2902 4SM -SHRA BR OVC035
     FM290300 13007KT 5SM -SHRA BR OVC007
     FM291200 17008KT 4SM -SHRA BR OVC004
     FM291500 18009KT P6SM VCSH BKN007 OVC025
     FM291900 20009KT P6SM VCSH SCT025 OVC120 PROB30 2919/2923 5SM
      -TSRA OVC025CB=

USA.gov is the U.S. government's official web portal to all federal, state and local government web resources and services.